Time;durP1;ratioP1;P1;durP2;ratioP2;P2;SDS_P1;SDS_P2;PMS_P1;PMS_P2;Temp;Humidity;BMP_temperature;BMP_pressure;BME280_temperature;BME280_humidity;BME280_pressure;Samples;Min_cycle;Max_cycle;Signal;HPM_P1;HPM_P2
2022/01/21 00:01:53;;;;;;;4.27;1.30;;;-1.50;99.90;;;;;;5074460;28;20187;-92
2022/01/21 00:04:22;;;;;;;8.13;2.03;;;-1.50;99.90;;;;;;5074223;28;20196;-90
2022/01/21 00:06:53;;;;;;;2.53;1.40;;;-1.60;99.90;;;;;;5064563;28;20246;-94
2022/01/21 00:09:25;;;;;;;5.83;1.60;;;-1.60;99.90;;;;;;5054284;28;20236;-91
2022/01/21 00:11:56;;;;;;;3.10;1.33;;;-1.50;99.90;;;;;;5054456;28;20307;-92
2022/01/21 00:14:28;;;;;;;4.17;1.60;;;-1.50;99.90;;;;;;5054387;28;20264;-91
2022/01/21 00:16:58;;;;;;;4.10;1.20;;;-1.50;97.70;;;;;;5064083;28;20584;-92
2022/01/21 00:19:38;;;;;;;1.97;1.20;;;-1.50;71.40;;;;;;5070455;28;20286;-91
2022/01/21 00:30:39;;;;;;;3.33;1.40;;;-1.60;25.30;;;;;;5027632;28;20180;-93
2022/01/21 00:33:10;;;;;;;8.00;1.60;;;-1.50;54.90;;;;;;5033644;28;20212;-91
2022/01/21 00:35:43;;;;;;;7.00;1.87;;;-1.50;88.70;;;;;;5033531;28;20655;-92
2022/01/21 00:38:13;;;;;;;5.00;1.33;;;-1.50;99.90;;;;;;5033955;28;20243;-91
2022/01/21 00:40:43;;;;;;;5.17;1.50;;;-1.40;99.90;;;;;;5033888;28;20193;-93
2022/01/21 00:43:21;;;;;;;4.30;1.20;;;-1.40;99.90;;;;;;5033675;28;20292;-91
2022/01/21 00:45:54;;;;;;;5.67;1.53;;;-1.40;99.90;;;;;;5033753;28;20604;-93
2022/01/21 00:48:22;;;;;;;3.67;1.43;;;-1.30;99.90;;;;;;5052939;28;20654;-88
2022/01/21 00:50:54;;;;;;;3.00;1.40;;;-1.40;99.90;;;;;;5053345;28;20209;-90
2022/01/21 00:53:21;;;;;;;7.50;1.70;;;-1.40;98.10;;;;;;5053346;28;20192;-92
2022/01/21 00:55:55;;;;;;;9.20;1.90;;;-1.40;94.30;;;;;;5053136;28;20290;-93
2022/01/21 00:58:25;;;;;;;4.97;1.70;;;-1.40;99.90;;;;;;5053349;28;20667;-92
2022/01/21 01:01:04;;;;;;;5.70;1.87;;;-1.40;99.90;;;;;;5053219;28;20246;-90
2022/01/21 01:03:34;;;;;;;4.77;1.50;;;-1.40;99.90;;;;;;5053236;28;20560;-90
2022/01/21 01:06:03;;;;;;;8.30;1.93;;;-1.40;99.90;;;;;;5050340;28;20586;-90
2022/01/21 01:08:31;;;;;;;4.77;1.63;;;-1.40;99.90;;;;;;5053012;28;20212;-90
2022/01/21 01:11:16;;;;;;;6.23;1.27;;;-1.40;99.90;;;;;;5053174;28;20299;-91
2022/01/21 01:22:04;;;;;;;7.63;1.53;;;-1.40;99.90;;;;;;5052953;28;20195;-91
2022/01/21 01:27:41;;;;;;;8.10;1.70;;;-1.40;99.90;;;;;;5033162;28;20572;-91
2022/01/21 01:30:12;;;;;;;8.80;1.67;;;-1.50;99.90;;;;;;5032585;28;20208;-90
2022/01/21 01:32:43;;;;;;;6.67;1.50;;;-1.50;99.90;;;;;;5032512;28;20304;-93
2022/01/21 01:35:18;;;;;;;8.13;1.73;;;-1.50;99.90;;;;;;5036539;28;20232;-92
2022/01/21 01:38:15;;;;;;;4.00;1.50;;;-1.60;99.90;;;;;;5052636;28;20206;-89
2022/01/21 01:40:52;;;;;;;5.63;1.50;;;-1.60;99.90;;;;;;5052438;28;20698;-92
2022/01/21 01:49:30;;;;;;;8.10;1.57;;;-1.60;99.90;;;;;;4972051;28;20230;-90
2022/01/21 01:51:58;;;;;;;6.93;1.40;;;-1.60;99.90;;;;;;5023590;28;20626;-92
2022/01/21 01:54:35;;;;;;;4.57;1.67;;;-1.60;99.90;;;;;;5052254;28;20288;-92
2022/01/21 01:57:06;;;;;;;9.00;1.60;;;-1.60;99.90;;;;;;5052622;28;20273;-90
2022/01/21 01:59:33;;;;;;;4.53;1.57;;;-1.60;99.90;;;;;;5052377;28;20287;-91
2022/01/21 02:02:14;;;;;;;6.43;1.97;;;-1.60;99.90;;;;;;5052552;28;20607;-91
2022/01/21 02:04:43;;;;;;;3.73;1.50;;;-1.50;99.90;;;;;;5051907;28;20192;-91
2022/01/21 02:07:14;;;;;;;5.50;1.73;;;-1.50;99.90;;;;;;5052441;28;20200;-92
2022/01/21 02:09:45;;;;;;;11.03;1.97;;;-1.50;99.90;;;;;;5052421;28;20188;-92
2022/01/21 02:12:19;;;;;;;3.90;1.43;;;-1.50;99.90;;;;;;5052075;28;20216;-91
2022/01/21 02:14:50;;;;;;;9.40;1.70;;;-1.50;99.90;;;;;;5052714;28;20207;-89
2022/01/21 02:21:29;;;;;;;7.63;1.60;;;-1.40;99.90;;;;;;5052319;28;20654;-90
2022/01/21 02:23:03;;;;;;;5.20;1.37;;;-1.50;99.90;;;;;;5052271;28;20192;-88
2022/01/21 02:25:31;;;;;;;10.83;1.73;;;-1.50;99.90;;;;;;5052567;28;20196;-91
2022/01/21 02:28:01;;;;;;;8.30;1.83;;;-1.50;99.90;;;;;;5052439;28;20613;-90
2022/01/21 02:30:34;;;;;;;7.17;1.50;;;-1.50;99.90;;;;;;5051978;28;20198;-90
2022/01/21 02:33:03;;;;;;;6.97;1.33;;;-1.50;99.90;;;;;;5051657;28;20741;-93
2022/01/21 02:35:31;;;;;;;6.10;1.60;;;-1.50;99.90;;;;;;5051977;28;20203;-92
2022/01/21 02:38:01;;;;;;;6.67;1.60;;;-1.50;99.90;;;;;;5052028;28;20189;-90
2022/01/21 02:40:35;;;;;;;5.80;1.43;;;-1.50;99.90;;;;;;5052118;28;20200;-91
2022/01/21 02:43:08;;;;;;;6.10;1.73;;;-1.50;99.90;;;;;;5051213;28;20195;-93
2022/01/21 02:45:45;;;;;;;6.50;1.40;;;-1.50;99.90;;;;;;5051633;28;20556;-91
2022/01/21 02:48:16;;;;;;;6.83;1.33;;;-1.50;99.90;;;;;;5051856;28;20591;-93
2022/01/21 02:50:54;;;;;;;5.67;1.80;;;-1.50;99.90;;;;;;5052250;28;20250;-93
2022/01/21 02:53:38;;;;;;;5.07;1.47;;;-1.50;99.90;;;;;;5051030;28;20212;-94
2022/01/21 02:56:21;;;;;;;3.77;1.40;;;-1.60;99.90;;;;;;5055730;28;20254;-92
2022/01/21 02:58:54;;;;;;;4.10;1.27;;;-1.50;99.90;;;;;;5055605;28;20634;-91
2022/01/21 03:01:25;;;;;;;6.60;1.20;;;-1.50;99.90;;;;;;5055679;28;20207;-89
2022/01/21 03:04:01;;;;;;;5.53;1.30;;;-1.50;99.90;;;;;;5055209;28;20218;-91
2022/01/21 03:06:32;;;;;;;6.67;1.80;;;-1.50;99.90;;;;;;5048369;28;20345;-90
2022/01/21 03:09:05;;;;;;;4.27;1.53;;;-1.50;99.90;;;;;;5055857;28;20177;-91
2022/01/21 03:11:35;;;;;;;7.03;1.43;;;-1.50;99.90;;;;;;5055418;28;20193;-92
2022/01/21 03:14:12;;;;;;;4.53;1.10;;;-1.50;99.90;;;;;;5055469;28;20665;-92
2022/01/21 03:16:40;;;;;;;5.20;1.53;;;-1.40;99.90;;;;;;5055110;28;20718;-90
2022/01/21 03:19:14;;;;;;;5.37;1.60;;;-1.40;99.90;;;;;;5055192;28;20227;-92
2022/01/21 03:21:42;;;;;;;6.43;1.73;;;-1.40;99.90;;;;;;5055773;28;20208;-92
2022/01/21 03:24:17;;;;;;;7.93;1.70;;;-1.40;99.90;;;;;;5054403;28;20180;-92
2022/01/21 03:26:47;;;;;;;3.93;1.20;;;-1.40;99.90;;;;;;5055394;28;20589;-90
2022/01/21 03:29:17;;;;;;;8.13;1.63;;;-1.40;99.90;;;;;;5054619;28;20562;-89
2022/01/21 03:31:48;;;;;;;4.10;1.30;;;-1.40;99.90;;;;;;5054321;28;20219;-90
2022/01/21 03:34:24;;;;;;;5.57;1.50;;;-1.40;99.90;;;;;;5055292;28;20200;-94
2022/01/21 03:36:53;;;;;;;7.13;1.53;;;-1.30;99.90;;;;;;5055235;28;20211;-92
2022/01/21 03:39:22;;;;;;;4.57;1.60;;;-1.30;99.90;;;;;;5054768;28;20200;-92
2022/01/21 03:41:53;;;;;;;4.53;1.17;;;-1.30;99.90;;;;;;5054550;28;20726;-92
2022/01/21 03:44:29;;;;;;;6.03;1.30;;;-1.30;99.90;;;;;;5054895;28;20196;-91
2022/01/21 03:47:05;;;;;;;6.30;1.67;;;-1.30;99.90;;;;;;5054748;28;20204;-95
2022/01/21 03:49:40;;;;;;;5.33;1.40;;;-1.20;99.90;;;;;;5054530;28;20196;-92
2022/01/21 03:52:11;;;;;;;4.00;1.20;;;-1.20;99.90;;;;;;5054908;28;20219;-91
2022/01/21 03:54:40;;;;;;;6.07;1.37;;;-1.20;99.90;;;;;;5054611;28;20200;-89
2022/01/21 03:57:10;;;;;;;6.73;1.53;;;-1.10;99.90;;;;;;5054322;28;20208;-90
2022/01/21 03:59:50;;;;;;;3.70;1.10;;;-1.10;99.90;;;;;;5054202;28;20231;-89
2022/01/21 04:02:18;;;;;;;4.73;1.70;;;-1.00;99.90;;;;;;5054320;28;20254;-90
2022/01/21 04:04:46;;;;;;;7.27;1.60;;;-1.10;99.90;;;;;;5054369;28;20200;-89
2022/01/21 04:07:13;;;;;;;4.67;1.43;;;-1.00;99.90;;;;;;5053761;28;20224;-89
2022/01/21 04:09:41;;;;;;;5.30;1.30;;;-0.90;99.90;;;;;;5054280;28;20200;-86
2022/01/21 04:12:10;;;;;;;3.70;1.07;;;-0.90;99.90;;;;;;5053596;28;20682;-87
2022/01/21 04:14:37;;;;;;;5.20;1.50;;;-0.70;99.90;;;;;;5054052;28;20196;-86
2022/01/21 04:17:05;;;;;;;6.83;1.60;;;-0.60;99.90;;;;;;5054292;28;20192;-86
2022/01/21 04:19:32;;;;;;;3.60;1.03;;;-0.50;99.90;;;;;;5053474;28;20192;-87
2022/01/21 04:21:59;;;;;;;7.07;1.67;;;-0.40;99.90;;;;;;5054281;28;20181;-86
2022/01/21 04:24:26;;;;;;;8.87;1.60;;;-0.40;99.90;;;;;;5054045;28;20200;-86
2022/01/21 04:26:55;;;;;;;3.43;1.30;;;-0.30;68.90;;;;;;5053973;28;20192;-86
2022/01/21 04:29:22;;;;;;;4.37;1.03;;;-0.30;22.20;;;;;;5045995;28;20539;-86
2022/01/21 04:31:49;;;;;;;2.70;1.40;;;-0.30;13.10;;;;;;5033560;28;20583;-86
2022/01/21 04:34:16;;;;;;;5.27;1.40;;;-0.30;1.00;;;;;;5033490;28;20189;-86
2022/01/21 04:36:43;;;;;;;4.90;1.60;;;-0.30;7.10;;;;;;5033700;28;20252;-86
2022/01/21 04:39:16;;;;;;;6.37;1.40;;;-0.20;4.30;;;;;;5038994;28;20189;-87
2022/01/21 04:47:13;;;;;;;8.70;1.30;;;-0.20;1.00;;;;;;5053552;28;20543;-86
2022/01/21 04:47:19;;;;;;;8.30;1.40;;;-0.20;1.00;;;;;;5053506;28;20529;-85
2022/01/21 04:49:46;;;;;;;7.17;1.30;;;-0.20;1.00;;;;;;5043715;28;20193;-86
2022/01/21 04:52:13;;;;;;;2.90;1.00;;;-0.30;1.00;;;;;;5033398;28;20221;-86
2022/01/21 04:54:40;;;;;;;5.57;0.90;;;-0.30;1.00;;;;;;5033584;28;20197;-85
2022/01/21 04:57:08;;;;;;;4.33;1.40;;;-0.30;1.00;;;;;;5033729;28;20250;-85
2022/01/21 04:59:37;;;;;;;7.87;1.30;;;-0.30;1.00;;;;;;5033932;28;20197;-85
2022/01/21 05:02:05;;;;;;;5.47;1.30;;;-0.40;1.00;;;;;;5033207;28;20197;-85
2022/01/21 05:04:32;;;;;;;3.03;1.00;;;-0.40;1.00;;;;;;5033269;28;20280;-85
2022/01/21 05:07:02;;;;;;;4.77;1.40;;;-0.50;1.00;;;;;;5033424;28;20197;-87
2022/01/21 05:09:32;;;;;;;5.33;1.30;;;-0.50;1.00;;;;;;5037441;28;20549;-85
2022/01/21 05:12:00;;;;;;;3.27;1.10;;;-0.50;1.00;;;;;;5053374;28;20658;-85
2022/01/21 05:14:42;;;;;;;3.57;1.10;;;-0.60;1.00;;;;;;5053246;28;20317;-86
2022/01/21 05:17:12;;;;;;;4.20;1.30;;;-0.60;1.00;;;;;;5052840;28;20187;-86
2022/01/21 05:19:39;;;;;;;4.63;1.20;;;-0.70;1.00;;;;;;5043543;28;20249;-86
2022/01/21 05:22:06;;;;;;;6.37;1.50;;;-0.80;1.00;;;;;;5033510;28;20182;-85
2022/01/21 05:24:33;;;;;;;7.20;2.13;;;-0.80;1.00;;;;;;5033012;28;20193;-85
2022/01/21 05:27:02;;;;;;;6.43;1.53;;;-0.80;1.00;;;;;;5032866;28;20201;-85
2022/01/21 05:29:31;;;;;;;6.60;2.70;;;-0.80;1.00;;;;;;5040458;28;20185;-85
2022/01/21 05:31:58;;;;;;;33.33;12.43;;;-0.90;1.00;;;;;;5052354;28;20204;-85
2022/01/21 05:34:27;;;;;;;56.40;22.40;;;-0.90;1.00;;;;;;5067754;28;20249;-85
2022/01/21 05:37:02;;;;;;;71.40;28.00;;;-0.90;1.00;;;;;;5076624;28;20191;-91
2022/01/21 05:39:29;;;;;;;80.73;24.10;;;-1.00;1.00;;;;;;5064445;28;20194;-85
2022/01/21 05:41:56;;;;;;;48.90;19.63;;;-1.00;1.00;;;;;;5051787;28;20593;-86
2022/01/21 05:47:10;;;;;;;19.33;6.70;;;-1.00;1.00;;;;;;5048502;28;20181;-85
2022/01/21 05:49:40;;;;;;;23.67;6.40;;;-1.10;1.00;;;;;;5032127;28;20239;-87
2022/01/21 05:52:14;;;;;;;6.83;2.87;;;-1.10;1.00;;;;;;5032115;28;20276;-87
2022/01/21 05:54:43;;;;;;;16.67;6.97;;;-1.10;1.00;;;;;;5047149;28;20195;-85
2022/01/21 05:57:13;;;;;;;14.20;5.73;;;-1.10;1.00;;;;;;5060569;28;20625;-86
2022/01/21 05:59:40;;;;;;;13.23;4.47;;;-1.10;1.00;;;;;;5056895;28;20725;-86
2022/01/21 06:02:07;;;;;;;5.63;2.93;;;-1.10;1.00;;;;;;5052823;28;20196;-87
2022/01/21 06:04:34;;;;;;;5.90;3.47;;;-1.20;1.00;;;;;;5052266;28;20192;-86
2022/01/21 06:07:03;;;;;;;4.97;2.73;;;-1.20;1.00;;;;;;5050018;28;20250;-86
2022/01/21 06:09:30;;;;;;;8.43;3.10;;;-1.20;1.00;;;;;;5052475;28;20204;-86
2022/01/21 06:11:57;;;;;;;4.90;3.00;;;-1.20;1.00;;;;;;5051886;28;20192;-87
2022/01/21 06:14:25;;;;;;;11.57;2.63;;;-1.20;1.00;;;;;;5044189;28;20216;-86
2022/01/21 06:16:52;;;;;;;7.17;2.83;;;-1.20;1.00;;;;;;5044210;28;20540;-86
2022/01/21 06:19:19;;;;;;;4.60;2.27;;;-1.20;1.00;;;;;;5032495;28;20254;-86
2022/01/21 06:21:46;;;;;;;12.77;7.67;;;-1.30;1.00;;;;;;5052334;28;20243;-87
2022/01/21 06:24:15;;;;;;;7.87;2.93;;;-1.20;1.00;;;;;;5051955;28;20192;-86
2022/01/21 06:26:42;;;;;;;8.20;2.80;;;-1.20;1.00;;;;;;5052053;28;20246;-85
2022/01/21 06:29:09;;;;;;;11.10;3.37;;;-1.20;1.00;;;;;;5052518;28;20204;-85
2022/01/21 06:31:36;;;;;;;10.83;3.83;;;-1.20;1.00;;;;;;5055840;28;20230;-85
2022/01/21 06:34:03;;;;;;;8.03;2.70;;;-1.20;1.00;;;;;;5055263;28;20617;-86
2022/01/21 06:36:30;;;;;;;8.37;2.30;;;-1.20;1.00;;;;;;5056105;28;20223;-87
2022/01/21 06:38:57;;;;;;;9.10;1.90;;;-1.20;1.00;;;;;;5055735;28;20219;-86
2022/01/21 06:41:26;;;;;;;10.50;3.13;;;-1.20;1.00;;;;;;5047925;28;20646;-88
2022/01/21 06:43:53;;;;;;;7.90;1.97;;;-1.30;1.00;;;;;;5055069;28;20192;-86
2022/01/21 06:46:20;;;;;;;10.47;2.13;;;-1.30;1.00;;;;;;5039496;28;20276;-86
2022/01/21 06:48:47;;;;;;;7.77;2.00;;;-1.30;1.00;;;;;;5035914;28;20640;-86
2022/01/21 06:51:14;;;;;;;8.77;2.10;;;-1.30;1.00;;;;;;5049917;28;20579;-88
2022/01/21 06:53:41;;;;;;;11.00;1.73;;;-1.30;1.00;;;;;;5055650;28;20220;-87
2022/01/21 06:56:08;;;;;;;8.77;2.50;;;-1.30;1.00;;;;;;5055741;28;20192;-88
2022/01/21 06:58:36;;;;;;;5.37;1.43;;;-1.20;1.00;;;;;;5055638;28;20200;-86
2022/01/21 07:01:06;;;;;;;6.23;1.87;;;-1.20;1.00;;;;;;5064239;28;20188;-90
2022/01/21 07:03:33;;;;;;;7.20;1.40;;;-1.20;4.60;;;;;;5077941;28;20223;-89
2022/01/21 07:06:09;;;;;;;4.43;1.50;;;-1.20;10.60;;;;;;5060957;28;20201;-87
2022/01/21 07:08:36;;;;;;;5.30;1.47;;;-1.10;17.50;;;;;;5057688;28;20721;-87
2022/01/21 07:11:13;;;;;;;9.13;1.77;;;-1.10;21.00;;;;;;5049969;28;20185;-88
2022/01/21 07:13:53;;;;;;;;;;;;;;;;;;;;;
2022/01/21 07:16:21;;;;;;;6.30;1.17;;;-0.90;58.70;;;;;;5062322;28;20284;-89
2022/01/21 07:19:00;;;;;;;10.40;1.60;;;-0.70;99.90;;;;;;5044603;28;20284;-87
2022/01/21 07:21:33;;;;;;;8.37;1.77;;;-0.40;99.90;;;;;;5057258;28;20229;-90
2022/01/21 07:24:00;;;;;;;9.23;2.50;;;-0.20;99.90;;;;;;5064797;28;20199;-86
2022/01/21 07:26:30;;;;;;;9.83;3.70;;;0.10;59.50;;;;;;5062374;28;20203;-90
2022/01/21 07:29:09;;;;;;;6.43;3.40;;;0.30;21.90;;;;;;5057663;28;20610;-87
2022/01/21 07:31:46;;;;;;;6.70;4.00;;;0.50;1.00;;;;;;5052951;28;20185;-91
2022/01/21 07:34:22;;;;;;;9.37;4.10;;;0.60;1.00;;;;;;5052598;28;20219;-90
2022/01/21 07:36:58;;;;;;;7.23;3.40;;;0.60;1.00;;;;;;5063738;28;20596;-93
2022/01/21 07:39:25;;;;;;;9.73;4.40;;;0.60;1.00;;;;;;5064721;28;20200;-90
2022/01/21 07:41:57;;;;;;;11.33;6.23;;;0.60;1.00;;;;;;5059485;28;20196;-91
2022/01/21 07:44:26;;;;;;;7.73;2.83;;;0.60;1.00;;;;;;5049203;28;20215;-93
2022/01/21 07:46:55;;;;;;;9.97;3.27;;;0.50;1.00;;;;;;5041678;28;20173;-90
2022/01/21 07:49:34;;;;;;;5.63;3.30;;;0.40;1.00;;;;;;5050878;28;20198;-92
2022/01/21 07:52:02;;;;;;;10.67;4.27;;;0.40;1.00;;;;;;5062487;28;20265;-91
2022/01/21 07:54:29;;;;;;;6.20;2.70;;;0.40;1.00;;;;;;5062036;28;20310;-93
2022/01/21 07:57:08;;;;;;;13.63;3.10;;;0.40;1.00;;;;;;5058718;28;20258;-90
2022/01/21 07:59:37;;;;;;;9.30;3.80;;;0.50;1.00;;;;;;5063521;28;20216;-89
2022/01/21 08:02:07;;;;;;;12.50;4.93;;;0.50;1.00;;;;;;5062956;28;20246;-92
2022/01/21 08:04:35;;;;;;;27.90;8.60;;;0.50;1.00;;;;;;5060768;28;20670;-88
2022/01/21 08:07:11;;;;;;;10.90;3.27;;;0.50;1.00;;;;;;5060673;28;20550;-92
2022/01/21 08:09:41;;;;;;;10.33;5.40;;;0.50;1.00;;;;;;5062371;28;20211;-91
2022/01/21 08:12:15;;;;;;;26.30;9.40;;;0.60;1.00;;;;;;5062406;28;20204;-94
2022/01/21 08:14:43;;;;;;;41.40;14.63;;;0.60;1.00;;;;;;5060256;28;20216;-93
2022/01/21 08:17:14;;;;;;;31.83;11.43;;;0.70;1.00;;;;;;5060214;28;20192;-90
2022/01/21 08:19:47;;;;;;;23.60;8.53;;;0.80;1.00;;;;;;5059073;28;20208;-91
2022/01/21 08:22:15;;;;;;;20.17;7.37;;;1.00;1.00;;;;;;5060574;28;20319;-92
2022/01/21 08:24:42;;;;;;;13.57;5.20;;;1.50;1.00;;;;;;5046955;28;20177;-92
2022/01/21 08:27:14;;;;;;;8.60;3.40;;;2.00;1.00;;;;;;5062983;28;20204;-92
2022/01/21 08:29:45;;;;;;;7.77;3.17;;;2.60;1.00;;;;;;5062294;28;20206;-91
2022/01/21 08:32:17;;;;;;;8.97;3.20;;;3.10;1.00;;;;;;5060103;28;20625;-94
2022/01/21 08:34:45;;;;;;;10.97;4.47;;;3.60;1.00;;;;;;5051646;28;20216;-90
2022/01/21 08:37:12;;;;;;;7.30;2.00;;;3.90;4.50;;;;;;5056087;28;20168;-88
2022/01/21 08:39:50;;;;;;;13.73;4.83;;;4.40;60.40;;;;;;5054143;28;20199;-92
2022/01/21 08:42:33;;;;;;;22.93;9.70;;;4.90;99.20;;;;;;5059173;28;20249;-89
2022/01/21 08:45:02;;;;;;;14.97;7.27;;;5.50;1.00;;;;;;5061378;28;20204;-91
2022/01/21 08:47:32;;;;;;;19.37;10.37;;;5.60;1.00;;;;;;5059556;28;20249;-93
2022/01/21 08:50:09;;;;;;;11.23;5.90;;;5.20;1.00;;;;;;5058888;28;20196;-93
2022/01/21 08:53:07;;;;;;;8.03;3.40;;;4.70;99.90;;;;;;5061985;28;20248;-90
2022/01/21 08:55:34;;;;;;;8.80;5.20;;;4.10;99.90;;;;;;5061044;28;20201;-90
2022/01/21 08:58:05;;;;;;;10.07;5.33;;;3.80;99.90;;;;;;5060867;28;20227;-93
2022/01/21 09:00:50;;;;;;;13.10;6.40;;;4.30;1.00;;;;;;5065440;28;20187;-90
2022/01/21 09:03:47;;;;;;;15.23;6.37;;;5.00;1.00;;;;;;5052693;28;20198;-89
2022/01/21 09:06:34;;;;;;;17.77;6.17;;;5.50;99.90;;;;;;5064133;28;20190;-94
2022/01/21 09:09:12;;;;;;;12.93;3.67;;;6.00;1.00;;;;;;5060510;28;20242;-91
2022/01/21 09:11:39;;;;;;;4.47;1.17;;;6.40;1.00;;;;;;5059435;28;20241;-89
2022/01/21 09:14:06;;;;;;;7.10;2.53;;;6.40;36.30;;;;;;5062813;28;20617;-93
2022/01/21 09:16:34;;;;;;;17.47;5.60;;;6.20;99.90;;;;;;5061735;28;20210;-91
2022/01/21 09:19:04;;;;;;;11.77;6.03;;;5.80;1.00;;;;;;5061474;28;20191;-92
2022/01/21 09:21:33;;;;;;;8.60;4.47;;;5.30;1.00;;;;;;5073424;28;20229;-88
2022/01/21 09:24:06;;;;;;;15.53;8.37;;;4.50;1.00;;;;;;5081194;28;20261;-91
2022/01/21 09:26:34;;;;;;;12.17;6.00;;;3.90;1.00;;;;;;5077231;28;20208;-92
2022/01/21 09:29:07;;;;;;;14.57;7.40;;;3.60;1.00;;;;;;5081803;28;20202;-93
2022/01/21 09:31:50;;;;;;;13.27;7.60;;;3.20;99.90;;;;;;5082546;28;20193;-94
2022/01/21 09:34:17;;;;;;;6.27;3.67;;;3.30;58.10;;;;;;5078581;28;20746;-91
2022/01/21 09:36:55;;;;;;;12.23;5.83;;;3.60;99.90;;;;;;5080499;28;21074;-92
2022/01/21 09:39:27;;;;;;;8.70;5.10;;;3.90;1.00;;;;;;5080132;28;20194;-93
2022/01/21 09:42:06;;;;;;;8.90;5.17;;;4.20;34.30;;;;;;5079213;28;20176;-90
2022/01/21 09:44:35;;;;;;;8.87;5.03;;;4.50;1.00;;;;;;5081632;28;20189;-88
2022/01/21 09:47:16;;;;;;;11.87;6.07;;;4.60;1.00;;;;;;5079469;28;20188;-89
2022/01/21 09:49:50;;;;;;;9.63;4.30;;;4.80;1.00;;;;;;5082462;28;20188;-91
2022/01/21 09:52:21;;;;;;;7.67;4.27;;;4.90;1.00;;;;;;5083469;28;20686;-88
2022/01/21 09:54:48;;;;;;;7.43;3.80;;;5.10;1.00;;;;;;5080201;28;20219;-88
2022/01/21 09:57:24;;;;;;;9.40;3.70;;;5.10;1.00;;;;;;5080804;28;20207;-88
2022/01/21 09:59:53;;;;;;;6.17;3.00;;;5.20;1.00;;;;;;5082161;28;20197;-89
2022/01/21 10:02:28;;;;;;;30.43;3.70;;;5.20;99.90;;;;;;5081976;28;20231;-91
2022/01/21 10:05:14;;;;;;;8.07;3.57;;;5.30;1.00;;;;;;5084302;28;20315;-91
2022/01/21 10:07:59;;;;;;;7.47;2.50;;;5.20;1.00;;;;;;5081773;28;20183;-93
2022/01/21 10:10:37;;;;;;;5.93;3.87;;;5.30;99.90;;;;;;5070619;28;20663;-93
2022/01/21 10:13:07;;;;;;;8.00;3.80;;;5.20;1.00;;;;;;5081581;28;20581;-93
2022/01/21 10:15:52;;;;;;;10.93;4.10;;;4.90;1.00;;;;;;5079142;28;20679;-88
2022/01/21 10:18:33;;;;;;;5.93;2.73;;;4.70;1.00;;;;;;5084069;28;20200;-89
2022/01/21 10:21:10;;;;;;;7.80;2.33;;;4.40;99.90;;;;;;5069659;28;20288;-90
2022/01/21 10:23:44;;;;;;;4.77;2.43;;;4.30;99.90;;;;;;5065162;28;20160;-88
2022/01/21 10:26:14;;;;;;;7.37;2.60;;;4.10;1.00;;;;;;5058116;28;20199;-89
2022/01/21 10:28:45;;;;;;;7.73;2.17;;;4.00;1.00;;;;;;5063801;28;20264;-89
2022/01/21 10:31:16;;;;;;;9.67;2.47;;;3.80;99.90;;;;;;5068956;28;20188;-92
2022/01/21 10:33:47;;;;;;;4.87;2.13;;;3.70;1.00;;;;;;5067463;28;20180;-87
2022/01/21 10:36:24;;;;;;;6.50;2.30;;;3.60;1.00;;;;;;5068376;28;20209;-90
2022/01/21 10:39:02;;;;;;;5.87;2.23;;;3.40;47.70;;;;;;5064148;28;20230;-90
2022/01/21 10:41:51;;;;;;;8.00;2.70;;;3.30;99.90;;;;;;5045594;28;20201;-91
2022/01/21 10:44:25;;;;;;;6.80;2.50;;;3.20;99.90;;;;;;5041230;28;20206;-90
2022/01/21 10:47:03;;;;;;;9.27;2.50;;;3.00;1.00;;;;;;5042285;28;20197;-87
2022/01/21 10:49:32;;;;;;;6.53;2.40;;;2.80;99.90;;;;;;5033963;28;20257;-89
2022/01/21 10:51:59;;;;;;;5.80;2.17;;;2.60;1.00;;;;;;5033687;28;20601;-88
2022/01/21 10:54:28;;;;;;;8.20;3.23;;;2.40;1.00;;;;;;5039270;28;20213;-87
2022/01/21 10:57:28;;;;;;;7.17;3.33;;;2.20;99.90;;;;;;5038201;28;20224;-88
2022/01/21 11:05:47;;;;;;;11.10;5.50;;;1.80;99.90;;;;;;5041306;28;20205;-91
2022/01/21 11:08:15;;;;;;;7.77;3.47;;;1.80;1.00;;;;;;5046004;28;20239;-89
2022/01/21 11:10:50;;;;;;;6.37;3.60;;;2.00;1.00;;;;;;5059255;28;20197;-87
2022/01/21 11:13:29;;;;;;;10.03;3.87;;;2.20;1.00;;;;;;5040913;28;20252;-87
2022/01/21 11:16:02;;;;;;;8.97;4.50;;;2.50;1.00;;;;;;5049139;28;20208;-92
2022/01/21 11:18:49;;;;;;;13.53;5.20;;;2.50;99.90;;;;;;5056845;28;20654;-89
2022/01/21 11:21:35;;;;;;;7.37;3.43;;;2.60;99.90;;;;;;5063412;28;20255;-89
2022/01/21 11:24:09;;;;;;;5.33;2.00;;;2.70;99.90;;;;;;5066580;28;20200;-89
2022/01/21 11:26:37;;;;;;;6.50;2.70;;;2.70;99.90;;;;;;5062059;28;20192;-88
2022/01/21 11:29:05;;;;;;;12.20;5.87;;;2.70;1.00;;;;;;5070155;28;20243;-87
2022/01/21 11:31:33;;;;;;;10.10;5.60;;;2.70;1.00;;;;;;5085805;28;20192;-90
2022/01/21 11:34:15;;;;;;;11.93;6.17;;;2.70;99.90;;;;;;5089619;28;20234;-90
2022/01/21 11:36:44;;;;;;;13.80;7.43;;;2.80;27.70;;;;;;5046066;28;20197;-90
2022/01/21 11:39:20;;;;;;;6.10;4.10;;;2.80;99.90;;;;;;5044466;28;20201;-87
2022/01/21 11:41:50;;;;;;;8.57;3.30;;;2.90;1.00;;;;;;5044390;28;20200;-89
2022/01/21 11:44:27;;;;;;;7.33;3.90;;;3.00;56.20;;;;;;5039457;28;20202;-87
2022/01/21 11:47:13;;;;;;;7.00;2.67;;;3.10;80.40;;;;;;5040378;28;20188;-88
2022/01/21 11:50:05;;;;;;;6.20;2.90;;;3.20;1.00;;;;;;5045958;28;20641;-92
2022/01/21 11:52:44;;;;;;;8.17;2.87;;;3.40;1.00;;;;;;5042762;28;20221;-91
2022/01/21 11:55:30;;;;;;;10.07;3.13;;;3.50;1.00;;;;;;5039888;28;20202;-87
2022/01/21 11:58:15;;;;;;;4.90;2.23;;;3.40;1.00;;;;;;5044566;28;20235;-92
2022/01/21 12:00:50;;;;;;;7.80;2.87;;;3.30;1.00;;;;;;5046290;28;20633;-87
2022/01/21 12:03:25;;;;;;;7.87;2.73;;;3.30;1.00;;;;;;5058336;28;20669;-88
2022/01/21 12:06:08;;;;;;;6.43;2.10;;;3.30;1.00;;;;;;5065650;28;20200;-88
2022/01/21 12:09:04;;;;;;;6.43;2.60;;;3.10;1.00;;;;;;5050659;28;20272;-92
2022/01/21 12:11:40;;;;;;;3.97;1.63;;;2.90;1.00;;;;;;5057389;28;20196;-92
2022/01/21 12:14:53;;;;;;;7.20;2.33;;;2.70;1.00;;;;;;5071452;28;20169;-91
2022/01/21 12:17:40;;;;;;;4.10;2.30;;;2.50;1.00;;;;;;5062572;28;20232;-88
2022/01/21 12:20:14;;;;;;;7.37;2.50;;;2.20;99.90;;;;;;5087039;28;20223;-91
2022/01/21 12:23:21;;;;;;;6.33;2.10;;;2.10;99.90;;;;;;5081367;28;20198;-87
2022/01/21 12:26:17;;;;;;;4.00;1.93;;;2.00;1.00;;;;;;5069479;28;20626;-89
2022/01/21 12:28:47;;;;;;;6.50;2.50;;;2.00;1.00;;;;;;5090021;28;20270;-89
2022/01/21 12:31:17;;;;;;;6.73;2.40;;;2.10;1.00;;;;;;5080707;28;20239;-88
2022/01/21 12:34:04;;;;;;;7.30;2.13;;;2.20;1.00;;;;;;5065644;28;20197;-90
2022/01/21 12:36:34;;;;;;;6.37;2.10;;;2.30;1.00;;;;;;5089970;28;20186;-89
2022/01/21 12:41:46;;;;;;;5.27;2.13;;;2.30;1.00;;;;;;5061271;28;20211;-89
2022/01/21 12:44:30;;;;;;;6.63;2.17;;;2.30;1.00;;;;;;5061774;28;20192;-87
2022/01/21 12:47:13;;;;;;;9.90;2.50;;;2.20;1.00;;;;;;5104752;28;20214;-87
2022/01/21 12:49:52;;;;;;;4.50;2.43;;;2.10;1.00;;;;;;5099325;28;20199;-91
2022/01/21 12:52:34;;;;;;;6.20;2.00;;;2.10;1.00;;;;;;5098930;28;20189;-88
2022/01/21 12:57:56;;;;;;;4.93;2.20;;;2.20;1.00;;;;;;5084571;28;20176;-87
2022/01/21 13:00:46;;;;;;;4.77;2.30;;;2.30;1.00;;;;;;5084228;28;20188;-87
2022/01/21 13:03:33;;;;;;;6.13;2.73;;;2.20;1.00;;;;;;5076200;28;20639;-88
2022/01/21 13:06:16;;;;;;;4.23;1.73;;;2.20;1.00;;;;;;5063432;28;20588;-88
2022/01/21 13:09:02;;;;;;;4.37;1.90;;;2.10;1.00;;;;;;5062825;28;20181;-91
2022/01/21 13:11:30;;;;;;;4.60;1.83;;;2.20;1.00;;;;;;5064130;28;20204;-87
2022/01/21 13:14:34;;;;;;;4.73;1.93;;;2.20;1.00;;;;;;5063524;28;20189;-90
2022/01/21 13:17:04;;;;;;;6.63;2.00;;;2.20;1.00;;;;;;5066260;28;20196;-87
2022/01/21 13:19:42;;;;;;;4.10;2.07;;;2.20;1.00;;;;;;5064984;28;20231;-89
2022/01/21 13:22:20;;;;;;;6.83;2.50;;;2.20;1.00;;;;;;5061634;28;20284;-90
2022/01/21 13:25:03;;;;;;;14.00;5.10;;;2.20;1.00;;;;;;5061902;28;20227;-89
2022/01/21 13:27:31;;;;;;;9.67;4.40;;;2.20;1.00;;;;;;5062324;28;20635;-87
2022/01/21 13:30:04;;;;;;;13.43;6.03;;;2.20;1.00;;;;;;5062375;28;20263;-88
2022/01/21 13:32:31;;;;;;;28.07;12.63;;;2.20;1.00;;;;;;5061765;28;20782;-88
2022/01/21 13:35:21;;;;;;;8.13;4.40;;;2.10;1.00;;;;;;5061226;28;20250;-87
2022/01/21 13:38:03;;;;;;;8.53;3.63;;;2.00;1.00;;;;;;5063127;28;20262;-89
2022/01/21 13:40:34;;;;;;;9.83;5.10;;;1.90;1.00;;;;;;5064418;28;20516;-90
2022/01/21 13:43:27;;;;;;;7.10;2.93;;;1.90;1.00;;;;;;5062767;28;20185;-86
2022/01/21 13:46:04;;;;;;;11.70;4.23;;;1.80;1.00;;;;;;5063153;28;20204;-89
2022/01/21 13:48:33;;;;;;;7.00;2.30;;;1.80;1.00;;;;;;5062115;28;20179;-88
2022/01/21 13:51:07;;;;;;;12.10;4.00;;;1.70;1.00;;;;;;5050313;28;20554;-89
2022/01/21 13:53:41;;;;;;;6.03;2.30;;;1.70;1.00;;;;;;5050372;28;20195;-89
2022/01/21 13:56:10;;;;;;;8.00;2.63;;;1.70;1.00;;;;;;5063876;28;20231;-88
2022/01/21 13:58:56;;;;;;;9.67;3.27;;;1.70;1.00;;;;;;5060150;28;20226;-90
2022/01/21 14:01:34;;;;;;;9.07;3.00;;;1.70;1.00;;;;;;5058232;28;20219;-89
2022/01/21 14:04:10;;;;;;;10.83;3.23;;;1.60;1.00;;;;;;5060452;28;20180;-90
2022/01/21 14:06:37;;;;;;;6.77;2.57;;;1.60;1.00;;;;;;5039021;28;20247;-92
2022/01/21 14:09:04;;;;;;;7.50;2.53;;;1.60;1.00;;;;;;5042603;28;20205;-87
2022/01/21 14:11:43;;;;;;;12.67;4.10;;;1.60;1.00;;;;;;5043532;28;20642;-91
2022/01/21 14:14:10;;;;;;;8.87;3.47;;;1.60;1.00;;;;;;5058824;28;20516;-89